createdAt,value
2022-09-06T00:01:54.918Z,101826.28
2022-09-06T00:04:24.870Z,101823.91
2022-09-06T00:06:55.279Z,101828.34
2022-09-06T00:09:28.198Z,101826.25
2022-09-06T00:11:58.562Z,101838.47
2022-09-06T00:14:31.373Z,101839.50
2022-09-06T00:17:02.600Z,101847.53
2022-09-06T00:19:32.626Z,101853.31
2022-09-06T00:22:03.172Z,101852.31
2022-09-06T00:24:33.647Z,101861.22
2022-09-06T00:27:03.660Z,101855.72
2022-09-06T00:29:35.148Z,101864.81
2022-09-06T00:32:05.340Z,101874.03
2022-09-06T00:34:36.107Z,101882.78
2022-09-06T00:37:05.690Z,101883.63
2022-09-06T00:39:36.412Z,101883.25
2022-09-06T00:42:11.197Z,101885.66
2022-09-06T00:44:44.039Z,101891.69
2022-09-06T00:47:14.510Z,101879.44
2022-09-06T00:49:51.301Z,101889.16
2022-09-06T00:52:21.530Z,101891.81
2022-09-06T00:54:52.665Z,101890.13
2022-09-06T00:57:28.162Z,101886.41
2022-09-06T00:59:58.487Z,101889.56
2022-09-06T01:02:29.038Z,101890.94
2022-09-06T01:04:59.514Z,101892.09
2022-09-06T01:07:41.703Z,101900.44
2022-09-06T01:10:30.186Z,101898.06
2022-09-06T01:13:32.563Z,101896.75
2022-09-06T01:16:13.431Z,101879.38
2022-09-06T01:19:01.758Z,101892.41
2022-09-06T01:21:32.090Z,101892.38
2022-09-06T01:24:14.363Z,101892.38
2022-09-06T01:27:21.492Z,101887.75
2022-09-06T01:30:01.586Z,101882.94
2022-09-06T01:32:50.607Z,101879.56
2022-09-06T01:35:27.590Z,101879.31
2022-09-06T01:37:59.466Z,101866.31
2022-09-06T01:40:37.423Z,101863.66
2022-09-06T01:43:14.221Z,101859.09
2022-09-06T01:46:06.120Z,101860.97
2022-09-06T01:48:52.700Z,101870.28
2022-09-06T01:51:51.009Z,101861.88
2022-09-06T01:54:26.590Z,101859.78
2022-09-06T01:57:20.787Z,101853.19
2022-09-06T01:59:53.715Z,101847.38
2022-09-06T02:02:50.142Z,101848.00
2022-09-06T02:05:36.420Z,101839.09
2022-09-06T02:08:20.479Z,101847.38
2022-09-06T02:11:08.410Z,101846.28
2022-09-06T02:13:53.950Z,101855.69
2022-09-06T02:16:27.622Z,101852.31
2022-09-06T02:19:02.713Z,101855.63
2022-09-06T02:21:39.938Z,101848.41
2022-09-06T02:24:11.655Z,101845.19
2022-09-06T02:26:42.387Z,101847.13
2022-09-06T02:29:12.794Z,101850.94
2022-09-06T02:31:46.426Z,101826.69
2022-09-06T02:34:19.358Z,101839.13
2022-09-06T02:36:49.905Z,101850.41
2022-09-06T02:39:20.425Z,101849.50
2022-09-06T02:41:50.849Z,101849.81
2022-09-06T02:44:21.336Z,101849.63
2022-09-06T02:46:56.358Z,101861.75
2022-09-06T02:49:27.563Z,101850.53
2022-09-06T02:51:58.246Z,101865.41
2022-09-06T02:54:28.754Z,101853.59
2022-09-06T02:56:58.819Z,101850.09
2022-09-06T02:59:28.778Z,101835.00
2022-09-06T03:01:59.309Z,101845.94
2022-09-06T03:04:29.354Z,101849.06
2022-09-06T03:06:59.417Z,101838.91
2022-09-06T03:09:29.246Z,101845.16
2022-09-06T03:11:59.331Z,101849.50
2022-09-06T03:14:29.723Z,101854.72
2022-09-06T03:16:59.819Z,101851.09
2022-09-06T03:19:30.361Z,101854.59
2022-09-06T03:22:01.505Z,101853.28
2022-09-06T03:24:31.972Z,101857.38
2022-09-06T03:27:02.014Z,101851.31
2022-09-06T03:29:32.347Z,101849.19
2022-09-06T03:32:02.448Z,101851.38
2022-09-06T03:34:32.770Z,101851.88
2022-09-06T03:37:02.789Z,101857.72
2022-09-06T03:39:33.184Z,101850.84
2022-09-06T03:42:03.632Z,101857.03
2022-09-06T03:44:34.002Z,101850.78
2022-09-06T03:47:04.284Z,101842.50
2022-09-06T03:49:34.590Z,101846.06
2022-09-06T03:52:04.864Z,101849.16
2022-09-06T03:54:38.335Z,101845.66
2022-09-06T03:57:11.733Z,101839.41
2022-09-06T03:59:42.163Z,101841.28
2022-09-06T04:02:12.329Z,101838.28
2022-09-06T04:04:42.722Z,101847.19
2022-09-06T04:07:13.022Z,101840.75
2022-09-06T04:09:43.452Z,101833.63
2022-09-06T04:12:16.209Z,101824.44
2022-09-06T04:14:46.982Z,101822.38
2022-09-06T04:17:16.550Z,101815.28
2022-09-06T04:19:46.295Z,101806.78
2022-09-06T04:22:16.811Z,101805.53
2022-09-06T04:24:46.577Z,101793.75
2022-09-06T04:27:17.091Z,101789.72
2022-09-06T04:29:47.075Z,101780.44
2022-09-06T04:32:17.629Z,101778.56
2022-09-06T04:34:47.603Z,101763.19
2022-09-06T04:37:21.421Z,101762.63
2022-09-06T04:39:52.112Z,101769.13
2022-09-06T04:42:22.519Z,101759.13
2022-09-06T04:44:52.483Z,101760.34
2022-09-06T04:47:23.229Z,101748.00
2022-09-06T04:49:56.210Z,101749.06
2022-09-06T04:52:30.058Z,101754.78
2022-09-06T04:55:00.370Z,101754.06
2022-09-06T04:57:30.967Z,101754.28
2022-09-06T05:00:00.946Z,101754.59
2022-09-06T05:02:31.619Z,101752.69
2022-09-06T05:05:01.569Z,101749.28
2022-09-06T05:07:32.162Z,101744.22
2022-09-06T05:10:02.203Z,101740.34
2022-09-06T05:12:32.846Z,101743.06
2022-09-06T05:15:02.617Z,101734.78
2022-09-06T05:17:33.195Z,101724.50
2022-09-06T05:20:03.213Z,101713.38
2022-09-06T05:22:33.784Z,101709.00
2022-09-06T05:25:04.073Z,101703.50
2022-09-06T05:27:34.692Z,101692.34
2022-09-06T05:30:05.775Z,101697.19
2022-09-06T05:32:36.413Z,101701.97
2022-09-06T05:35:06.638Z,101699.47
2022-09-06T05:37:37.440Z,101698.53
2022-09-06T05:40:07.934Z,101687.09
2022-09-06T05:42:38.562Z,101693.13
2022-09-06T05:45:09.263Z,101672.44
2022-09-06T05:47:39.903Z,101686.81
2022-09-06T05:50:10.108Z,101667.69
2022-09-06T05:52:43.443Z,101665.16
2022-09-06T05:55:13.550Z,101659.63
2022-09-06T05:57:44.105Z,101657.28
2022-09-06T06:00:14.815Z,101662.13
2022-09-06T06:02:47.743Z,101651.00
2022-09-06T06:05:18.461Z,101647.13
2022-09-06T06:07:48.851Z,101645.75
2022-09-06T06:10:18.689Z,101634.81
2022-09-06T06:12:49.435Z,101644.44
2022-09-06T06:15:19.413Z,101642.34
2022-09-06T06:17:49.787Z,101637.69
2022-09-06T06:20:19.566Z,101624.13
2022-09-06T06:22:49.984Z,101611.13
2022-09-06T06:25:24.118Z,101608.47
2022-09-06T06:27:54.791Z,101603.19
2022-09-06T06:30:27.571Z,101593.50
2022-09-06T06:32:59.602Z,101589.06
2022-09-06T06:35:31.585Z,101587.16
2022-09-06T06:38:03.026Z,101587.03
2022-09-06T06:40:33.014Z,101598.50
2022-09-06T06:43:03.488Z,101598.50
2022-09-06T06:45:33.557Z,101597.59
2022-09-06T06:48:04.301Z,101601.06
2022-09-06T06:50:34.378Z,101591.63
2022-09-06T06:53:04.896Z,101587.69
2022-09-06T06:55:34.854Z,101571.25
2022-09-06T06:58:05.619Z,101565.41
2022-09-06T07:00:35.165Z,101571.84
2022-09-06T07:03:05.945Z,101558.94
2022-09-06T07:08:26.105Z,101572.44
2022-09-06T07:10:56.214Z,101568.34
2022-09-06T07:13:26.959Z,101570.41
2022-09-06T07:16:09.917Z,101572.56
2022-09-06T07:18:43.600Z,101568.56
2022-09-06T07:24:10.876Z,101559.25
2022-09-06T07:26:41.851Z,101559.69
2022-09-06T07:29:12.366Z,101544.72
2022-09-06T07:34:38.907Z,101553.91
2022-09-06T07:37:09.026Z,101561.75
2022-09-06T07:39:41.244Z,101565.53
2022-09-06T07:42:12.256Z,101561.13
2022-09-06T07:44:42.731Z,101554.84
2022-09-06T07:53:14.990Z,101549.34
2022-09-06T07:55:46.301Z,101555.41
2022-09-06T07:58:16.446Z,101550.72
2022-09-06T08:00:47.102Z,101547.47
2022-09-06T08:03:17.151Z,101530.16
2022-09-06T08:11:29.945Z,101551.69
2022-09-06T08:14:01.383Z,101562.31
2022-09-06T08:16:33.038Z,101564.50
2022-09-06T08:19:06.411Z,101562.59
2022-09-06T08:21:37.280Z,101574.44
2022-09-06T08:24:10.743Z,101568.25
2022-09-06T08:26:43.511Z,101585.91
2022-09-06T08:29:14.883Z,101587.28
2022-09-06T08:31:46.462Z,101594.63
2022-09-06T08:34:17.256Z,101593.59
2022-09-06T08:36:47.859Z,101616.72
2022-09-06T08:39:18.066Z,101623.31
2022-09-06T08:41:59.866Z,101630.81
2022-09-06T08:47:29.854Z,101628.53
2022-09-06T08:50:07.999Z,101628.81
2022-09-06T08:53:18.286Z,101630.41
2022-09-06T08:55:57.270Z,101623.47
2022-09-06T08:58:43.811Z,101617.31
2022-09-06T09:01:26.335Z,101633.94
2022-09-06T09:03:59.303Z,101626.84
2022-09-06T09:06:29.810Z,101630.56
2022-09-06T09:09:09.138Z,101638.94
2022-09-06T09:11:44.267Z,101629.47
2022-09-06T09:14:22.624Z,101636.78
2022-09-06T09:17:04.791Z,101621.75
2022-09-06T09:19:38.593Z,101627.75
2022-09-06T09:22:08.687Z,101642.19
2022-09-06T09:24:39.405Z,101655.97
2022-09-06T09:27:13.814Z,101655.50
2022-09-06T09:32:49.341Z,101643.25
2022-09-06T09:35:25.915Z,101643.66
2022-09-06T09:38:12.490Z,101642.25
2022-09-06T09:40:51.225Z,101657.28
2022-09-06T09:43:21.597Z,101652.41
2022-09-06T09:46:25.160Z,101664.50
2022-09-06T09:49:09.400Z,101675.31
2022-09-06T09:51:44.939Z,101673.63
2022-09-06T09:54:31.024Z,101662.22
2022-09-06T09:57:01.263Z,101695.31
2022-09-06T09:59:38.370Z,101693.50
2022-09-06T10:02:29.197Z,101708.19
2022-09-06T10:05:10.943Z,101719.44
2022-09-06T10:08:11.456Z,101710.72
2022-09-06T10:10:47.962Z,101720.94
2022-09-06T10:13:32.676Z,101714.94
2022-09-06T10:16:05.970Z,101725.25
2022-09-06T10:18:42.511Z,101724.63
2022-09-06T10:21:17.166Z,101729.50
2022-09-06T10:26:54.925Z,101736.63
2022-09-06T10:29:44.490Z,101751.91
2022-09-06T10:32:43.722Z,101752.09
2022-09-06T10:35:48.679Z,101752.06
2022-09-06T10:38:28.744Z,101759.50
2022-09-06T10:41:15.032Z,101772.59
2022-09-06T10:43:51.833Z,101773.09
2022-09-06T10:46:28.157Z,101772.94
2022-09-06T10:48:59.291Z,101772.66
2022-09-06T10:52:03.960Z,101773.28
2022-09-06T10:54:37.323Z,101764.13
2022-09-06T11:00:26.756Z,101772.59
2022-09-06T11:06:18.366Z,101765.09
2022-09-06T11:09:05.775Z,101773.28
2022-09-06T11:11:43.926Z,101771.78
2022-09-06T11:14:15.675Z,101759.00
2022-09-06T11:17:06.119Z,101767.78
2022-09-06T11:20:03.819Z,101757.13
2022-09-06T11:23:25.152Z,101768.81
2022-09-06T11:25:58.987Z,101771.97
2022-09-06T11:28:46.515Z,101756.31
2022-09-06T11:34:38.784Z,101737.09
2022-09-06T11:37:10.122Z,101737.22
2022-09-06T11:43:03.601Z,101748.09
2022-09-06T11:45:54.528Z,101744.06
2022-09-06T11:48:35.721Z,101739.66
2022-09-06T11:51:14.263Z,101740.59
2022-09-06T11:53:50.509Z,101734.75
2022-09-06T11:56:42.396Z,101723.31
2022-09-06T11:59:18.940Z,101717.41
2022-09-06T12:02:06.138Z,101719.78
2022-09-06T12:05:01.904Z,101722.25
2022-09-06T12:07:34.951Z,101730.28
2022-09-06T12:10:44.853Z,101725.66
2022-09-06T12:13:40.642Z,101719.88
2022-09-06T12:16:16.098Z,101713.53
2022-09-06T12:18:49.942Z,101716.09
2022-09-06T12:21:43.117Z,101727.44
2022-09-06T12:24:52.284Z,101726.75
2022-09-06T12:27:52.705Z,101720.25
2022-09-06T12:30:38.577Z,101723.09
2022-09-06T12:33:40.014Z,101707.94
2022-09-06T12:36:30.801Z,101694.88
2022-09-06T12:39:05.491Z,101683.72
2022-09-06T12:41:43.587Z,101689.47
2022-09-06T12:44:17.418Z,101697.16
2022-09-06T12:46:52.980Z,101686.22
2022-09-06T12:49:24.927Z,101681.66
2022-09-06T12:52:12.865Z,101673.19
2022-09-06T12:54:47.149Z,101659.47
2022-09-06T12:57:24.038Z,101653.56
2022-09-06T12:59:57.246Z,101653.66
2022-09-06T13:02:49.601Z,101645.28
2022-09-06T13:05:20.695Z,101645.72
2022-09-06T13:07:57.715Z,101664.81
2022-09-06T13:10:30.581Z,101664.53
2022-09-06T13:13:02.947Z,101659.19
2022-09-06T13:15:34.016Z,101640.06
2022-09-06T13:18:32.809Z,101656.78
2022-09-06T13:21:09.293Z,101656.59
2022-09-06T13:23:54.066Z,101650.25
2022-09-06T13:26:41.597Z,101665.19
2022-09-06T13:29:35.282Z,101671.72
2022-09-06T13:32:10.496Z,101672.78
2022-09-06T13:34:51.943Z,101678.19
2022-09-06T13:37:22.591Z,101666.25
2022-09-06T13:39:53.478Z,101652.69
2022-09-06T13:42:37.806Z,101647.53
2022-09-06T13:45:41.136Z,101643.31
2022-09-06T13:48:28.384Z,101648.97
2022-09-06T13:50:59.810Z,101650.25
2022-09-06T13:53:33.229Z,101658.88
2022-09-06T13:56:04.288Z,101657.88
2022-09-06T13:58:35.252Z,101644.56
2022-09-06T14:01:11.057Z,101636.16
2022-09-06T14:03:46.366Z,101628.81
2022-09-06T14:06:17.703Z,101619.19
2022-09-06T14:09:07.464Z,101606.94
2022-09-06T14:11:38.959Z,101605.06
2022-09-06T14:14:11.000Z,101607.56
2022-09-06T14:16:41.190Z,101587.53
2022-09-06T14:19:11.892Z,101578.94
2022-09-06T14:21:42.698Z,101567.13
2022-09-06T14:24:13.401Z,101578.09
2022-09-06T14:26:43.690Z,101582.50
2022-09-06T14:29:14.335Z,101584.19
2022-09-06T14:31:44.616Z,101587.25
2022-09-06T14:34:15.283Z,101580.78
2022-09-06T14:36:45.497Z,101580.84
2022-09-06T14:39:16.103Z,101578.28
2022-09-06T14:41:46.328Z,101575.31
2022-09-06T14:44:16.977Z,101572.72
2022-09-06T14:46:48.897Z,101573.53
2022-09-06T14:49:19.675Z,101572.59
2022-09-06T14:51:49.885Z,101560.03
2022-09-06T14:54:27.284Z,101543.59
2022-09-06T14:56:59.824Z,101550.81
2022-09-06T14:59:30.287Z,101546.38
2022-09-06T15:02:01.013Z,101544.47
2022-09-06T15:04:31.946Z,101524.59
2022-09-06T15:07:02.570Z,101516.13
2022-09-06T15:09:32.935Z,101523.31
2022-09-06T15:12:06.884Z,101522.28
2022-09-06T15:14:38.603Z,101508.88
2022-09-06T15:17:10.110Z,101526.56
2022-09-06T15:19:40.807Z,101528.25
2022-09-06T15:22:11.431Z,101524.88
2022-09-06T15:24:41.846Z,101528.50
2022-09-06T15:27:12.750Z,101524.47
2022-09-06T15:29:43.714Z,101505.00
2022-09-06T15:32:13.926Z,101507.38
2022-09-06T15:34:44.538Z,101487.19
2022-09-06T15:37:14.692Z,101489.72
2022-09-06T15:39:45.339Z,101483.00
2022-09-06T15:42:15.552Z,101487.31
2022-09-06T15:44:46.181Z,101470.22
2022-09-06T15:47:16.278Z,101468.28
2022-09-06T15:49:46.988Z,101461.56
2022-09-06T15:52:17.130Z,101452.09
2022-09-06T15:55:06.172Z,101449.78
2022-09-06T15:57:36.334Z,101438.09
2022-09-06T16:00:07.369Z,101443.47
2022-09-06T16:02:37.506Z,101419.69
2022-09-06T16:05:08.431Z,101424.09
2022-09-06T16:07:42.110Z,101410.44
2022-09-06T16:10:14.079Z,101400.41
2022-09-06T16:12:50.525Z,101407.69
2022-09-06T16:15:21.321Z,101396.53
2022-09-06T16:17:53.224Z,101397.28
2022-09-06T16:20:24.439Z,101398.00
2022-09-06T16:22:54.592Z,101400.09
2022-09-06T16:25:25.234Z,101393.50
2022-09-06T16:27:55.430Z,101381.09
2022-09-06T16:30:26.067Z,101392.16
2022-09-06T16:32:56.221Z,101382.28
2022-09-06T16:35:26.778Z,101376.13
2022-09-06T16:37:56.897Z,101381.72
2022-09-06T16:40:29.675Z,101377.81
2022-09-06T16:42:59.807Z,101367.88
2022-09-06T16:45:33.167Z,101344.97
2022-09-06T16:48:03.337Z,101358.06
2022-09-06T16:50:34.365Z,101365.22
2022-09-06T16:53:04.746Z,101364.63
2022-09-06T16:55:40.649Z,101360.31
2022-09-06T16:58:10.989Z,101363.56
2022-09-06T17:00:43.217Z,101360.81
2022-09-06T17:03:15.323Z,101355.41
2022-09-06T17:05:45.838Z,101365.06
2022-09-06T17:08:16.449Z,101353.06
2022-09-06T17:10:47.650Z,101358.06
2022-09-06T17:13:17.924Z,101343.41
2022-09-06T17:16:15.794Z,101343.72
2022-09-06T17:18:47.419Z,101339.53
2022-09-06T17:21:18.003Z,101330.34
2022-09-06T17:23:48.586Z,101325.09
2022-09-06T17:26:23.543Z,101318.88
2022-09-06T17:28:53.679Z,101330.81
2022-09-06T17:31:25.944Z,101317.59
2022-09-06T17:33:56.455Z,101316.16
2022-09-06T17:36:30.869Z,101317.75
2022-09-06T17:39:05.814Z,101321.50
2022-09-06T17:41:40.105Z,101310.81
2022-09-06T17:44:12.188Z,101300.06
2022-09-06T17:46:57.042Z,101296.78
2022-09-06T17:49:33.322Z,101280.19
2022-09-06T17:52:03.994Z,101295.44
2022-09-06T17:54:34.555Z,101299.72
2022-09-06T17:57:05.426Z,101301.44
2022-09-06T17:59:36.227Z,101298.38
2022-09-06T18:02:06.982Z,101294.81
2022-09-06T18:04:37.801Z,101291.63
2022-09-06T18:07:08.466Z,101309.53
2022-09-06T18:09:38.733Z,101298.13
2022-09-06T18:12:10.359Z,101286.59
2022-09-06T18:14:40.531Z,101278.75
2022-09-06T18:17:11.153Z,101271.25
2022-09-06T18:19:41.469Z,101272.22
2022-09-06T18:22:12.694Z,101265.19
2022-09-06T18:24:42.850Z,101257.69
2022-09-06T18:27:12.874Z,101266.28
2022-09-06T18:29:43.738Z,101259.34
2022-09-06T18:32:14.149Z,101256.97
2022-09-06T18:34:44.738Z,101256.94
2022-09-06T18:37:16.092Z,101258.28
2022-09-06T18:39:46.997Z,101264.69
2022-09-06T18:42:17.206Z,101271.53
2022-09-06T18:44:48.792Z,101270.94
2022-09-06T18:47:19.394Z,101264.16
2022-09-06T18:49:50.992Z,101261.13
2022-09-06T18:52:21.919Z,101263.03
2022-09-06T18:54:53.628Z,101267.31
2022-09-06T18:57:24.016Z,101240.16
2022-09-06T18:59:54.539Z,101269.00
2022-09-06T19:02:26.652Z,101264.59
2022-09-06T19:05:00.276Z,101270.69
2022-09-06T19:07:31.600Z,101233.88
2022-09-06T19:10:02.343Z,101275.09
2022-09-06T19:12:32.575Z,101263.44
2022-09-06T19:15:03.161Z,101262.50
2022-09-06T19:17:33.419Z,101260.19
2022-09-06T19:20:05.585Z,101259.97
2022-09-06T19:22:35.803Z,101258.44
2022-09-06T19:25:07.019Z,101264.69
2022-09-06T19:27:37.324Z,101259.34
2022-09-06T19:30:08.631Z,101255.56
2022-09-06T19:32:38.934Z,101235.69
2022-09-06T19:35:09.799Z,101249.53
2022-09-06T19:37:40.114Z,101250.53
2022-09-06T19:40:11.909Z,101241.72
2022-09-06T19:42:42.187Z,101252.19
2022-09-06T19:45:12.983Z,101249.19
2022-09-06T19:47:43.211Z,101247.31
2022-09-06T19:50:13.844Z,101237.31
2022-09-06T19:52:44.108Z,101235.16
2022-09-06T19:55:14.615Z,101237.31
2022-09-06T19:57:45.058Z,101228.69
2022-09-06T20:00:16.394Z,101229.88
2022-09-06T20:02:46.630Z,101226.34
2022-09-06T20:05:19.136Z,101219.59
2022-09-06T20:07:49.323Z,101221.28
2022-09-06T20:10:20.830Z,101228.53
2022-09-06T20:12:51.586Z,101219.31
2022-09-06T20:15:22.693Z,101227.84
2022-09-06T20:17:53.716Z,101222.03
2022-09-06T20:20:25.975Z,101209.31
2022-09-06T20:22:56.142Z,101212.66
2022-09-06T20:25:26.917Z,101217.88
2022-09-06T20:27:57.093Z,101218.75
2022-09-06T20:30:28.127Z,101204.97
2022-09-06T20:32:58.898Z,101202.91
2022-09-06T20:35:30.606Z,101197.59
2022-09-06T20:38:00.855Z,101188.25
2022-09-06T20:40:31.975Z,101181.22
2022-09-06T20:43:03.427Z,101190.16
2022-09-06T20:45:34.550Z,101196.81
2022-09-06T20:48:04.804Z,101204.00
2022-09-06T20:50:35.423Z,101204.81
2022-09-06T20:53:05.607Z,101216.22
2022-09-06T20:55:38.824Z,101220.09
2022-09-06T20:58:09.709Z,101208.56
2022-09-06T21:00:41.944Z,101192.84
2022-09-06T21:03:12.759Z,101195.78
2022-09-06T21:05:46.670Z,101194.84
2022-09-06T21:08:17.734Z,101191.66
2022-09-06T21:10:48.640Z,101199.13
2022-09-06T21:13:18.804Z,101199.13
2022-09-06T21:15:50.082Z,101183.88
2022-09-06T21:18:20.290Z,101181.31
2022-09-06T21:20:58.255Z,101175.56
2022-09-06T21:23:30.649Z,101185.44
2022-09-06T21:26:06.614Z,101193.00
2022-09-06T21:28:39.278Z,101199.66
2022-09-06T21:31:20.355Z,101206.00
2022-09-06T21:33:55.646Z,101212.94
2022-09-06T21:36:31.531Z,101215.69
2022-09-06T21:39:04.679Z,101217.41
2022-09-06T21:41:38.771Z,101219.72
2022-09-06T21:44:09.882Z,101221.91
2022-09-06T21:46:42.009Z,101219.06
2022-09-06T21:49:14.993Z,101216.81
2022-09-06T21:51:45.667Z,101200.03
2022-09-06T21:54:15.916Z,101207.69
2022-09-06T21:56:47.662Z,101224.13
2022-09-06T21:59:19.535Z,101233.59
2022-09-06T22:01:50.450Z,101237.94
2022-09-06T22:04:20.870Z,101231.09
2022-09-06T22:06:51.329Z,101220.88
2022-09-06T22:09:20.884Z,101201.00
2022-09-06T22:11:52.733Z,101215.06
2022-09-06T22:14:22.889Z,101219.72
2022-09-06T22:16:54.574Z,101216.75
2022-09-06T22:19:24.670Z,101224.56
2022-09-06T22:21:55.643Z,101212.13
2022-09-06T22:24:25.802Z,101222.19
2022-09-06T22:26:56.294Z,101216.66
2022-09-06T22:29:26.392Z,101213.00
2022-09-06T22:31:56.814Z,101199.13
2022-09-06T22:34:26.531Z,101203.03
2022-09-06T22:36:56.209Z,101202.13
2022-09-06T22:39:29.341Z,101206.69
2022-09-06T22:42:02.043Z,101209.44
2022-09-06T22:44:32.823Z,101213.59
2022-09-06T22:47:02.913Z,101231.59
2022-09-06T22:49:33.491Z,101223.50
2022-09-06T22:52:04.683Z,101224.09
2022-09-06T22:54:38.197Z,101215.31
2022-09-06T22:57:08.321Z,101205.47
2022-09-06T22:59:42.084Z,101220.47
2022-09-06T23:02:12.165Z,101225.38
2022-09-06T23:04:42.740Z,101221.63
2022-09-06T23:07:12.415Z,101217.25
2022-09-06T23:09:42.756Z,101228.84
2022-09-06T23:12:13.450Z,101225.19
2022-09-06T23:14:43.851Z,101228.63
2022-09-06T23:17:15.800Z,101219.22
2022-09-06T23:19:48.285Z,101221.31
2022-09-06T23:22:18.237Z,101207.41
2022-09-06T23:24:48.758Z,101202.75
2022-09-06T23:27:18.251Z,101204.28
2022-09-06T23:29:47.989Z,101207.00
2022-09-06T23:32:18.436Z,101207.66
2022-09-06T23:34:49.201Z,101201.25
2022-09-06T23:37:21.001Z,101191.06
2022-09-06T23:39:51.727Z,101177.88
2022-09-06T23:42:24.104Z,101167.34
2022-09-06T23:44:58.262Z,101168.31
2022-09-06T23:47:28.811Z,101167.34
2022-09-06T23:49:58.618Z,101161.19
2022-09-06T23:52:29.082Z,101158.19
2022-09-06T23:54:59.071Z,101155.03
2022-09-06T23:57:29.595Z,101159.03
2022-09-06T23:59:59.609Z,101150.78
